Time;durP1;ratioP1;P1;durP2;ratioP2;P2;SDS_P1;SDS_P2;PMS_P1;PMS_P2;Temp;Humidity;BMP_temperature;BMP_pressure;BME280_temperature;BME280_humidity;BME280_pressure;Samples;Min_cycle;Max_cycle;Signal;HPM_P1;HPM_P2
2023/07/06 00:01:02;;;;;;;17.70;8.50;;;13.60;99.90;;;;;;5070097;28;20036;-70
2023/07/06 00:03:31;;;;;;;16.27;7.95;;;13.60;99.90;;;;;;5068935;28;20028;-70
2023/07/06 00:05:57;;;;;;;12.65;8.40;;;13.50;99.90;;;;;;5070382;28;20040;-70
2023/07/06 00:08:22;;;;;;;12.55;8.77;;;13.50;99.90;;;;;;5070585;28;20033;-70
2023/07/06 00:10:52;;;;;;;12.55;7.68;;;13.60;99.90;;;;;;5070383;28;20123;-70
2023/07/06 00:13:20;;;;;;;15.60;8.88;;;13.60;99.90;;;;;;5070444;28;20143;-70
2023/07/06 00:15:48;;;;;;;16.05;8.00;;;13.60;99.90;;;;;;5070318;28;20028;-70
2023/07/06 00:18:15;;;;;;;14.77;8.80;;;13.60;99.90;;;;;;5049024;28;20447;-70
2023/07/06 00:20:40;;;;;;;20.15;8.30;;;13.60;99.90;;;;;;5056245;28;20580;-70
2023/07/06 00:23:08;;;;;;;15.27;9.68;;;13.60;99.90;;;;;;5069849;28;20020;-70
2023/07/06 00:25:34;;;;;;;14.73;7.88;;;13.70;99.90;;;;;;5071270;28;20049;-70
2023/07/06 00:28:02;;;;;;;15.02;7.80;;;13.70;99.90;;;;;;5073635;28;20367;-70
2023/07/06 00:33:11;;;;;;;18.52;8.82;;;13.70;99.90;;;;;;5073410;28;20025;-70
2023/07/06 00:35:39;;;;;;;14.10;8.18;;;13.80;99.90;;;;;;5073888;28;20032;-70
2023/07/06 00:38:11;;;;;;;17.60;9.50;;;13.80;99.90;;;;;;5072082;28;20021;-70
2023/07/06 00:40:39;;;;;;;17.47;8.57;;;13.80;99.90;;;;;;5074202;28;20116;-70
2023/07/06 00:43:09;;;;;;;15.30;8.68;;;13.80;99.90;;;;;;5072198;28;20024;-70
2023/07/06 00:45:37;;;;;;;11.68;8.07;;;13.80;99.90;;;;;;5073858;28;20414;-70
2023/07/06 00:48:03;;;;;;;14.13;8.70;;;13.90;99.90;;;;;;5073001;28;20024;-70
2023/07/06 00:50:30;;;;;;;15.18;8.95;;;13.90;99.90;;;;;;5073449;28;20040;-70
2023/07/06 00:53:02;;;;;;;13.15;9.07;;;13.90;99.90;;;;;;5053496;28;20029;-70
2023/07/06 00:55:32;;;;;;;13.45;9.35;;;13.90;99.90;;;;;;5053829;28;20036;-70
2023/07/06 00:58:08;;;;;;;17.63;9.43;;;13.90;99.90;;;;;;5070939;28;20424;-70
2023/07/06 01:00:36;;;;;;;15.60;9.45;;;13.80;99.90;;;;;;5073232;28;20142;-70
2023/07/06 01:03:02;;;;;;;18.65;9.38;;;13.80;99.90;;;;;;5073178;28;20025;-70
2023/07/06 01:05:30;;;;;;;17.92;9.43;;;13.80;99.90;;;;;;5073908;28;20060;-70
2023/07/06 01:08:02;;;;;;;20.48;10.57;;;13.80;99.90;;;;;;5072815;28;20493;-70
2023/07/06 01:10:31;;;;;;;;;;;13.80;99.90;;;;;;5073872;28;20040;-70
2023/07/06 01:12:57;;;;;;;16.38;9.00;;;13.70;99.90;;;;;;5072894;28;20374;-70
2023/07/06 01:15:25;;;;;;;21.10;9.40;;;13.60;99.90;;;;;;5073489;28;20025;-70
2023/07/06 01:18:00;;;;;;;15.65;9.73;;;13.60;99.90;;;;;;5072877;28;20017;-70
2023/07/06 01:20:44;;;;;;;15.15;9.55;;;13.50;99.90;;;;;;5073628;28;20032;-70
2023/07/06 01:23:40;;;;;;;19.52;9.63;;;13.50;99.90;;;;;;5072759;28;20528;-70
2023/07/06 01:26:14;;;;;;;15.23;9.43;;;13.40;99.90;;;;;;5072328;28;20573;-70
2023/07/06 01:29:04;;;;;;;14.85;9.15;;;13.30;99.90;;;;;;5073008;28;20024;-69
2023/07/06 01:31:53;;;;;;;16.23;9.43;;;13.30;99.90;;;;;;5072867;28;20429;-70
2023/07/06 01:34:45;;;;;;;10.93;8.55;;;13.20;99.90;;;;;;5066686;28;20493;-70
2023/07/06 01:37:17;;;;;;;;;;;13.20;99.90;;;;;;5071229;28;20252;-69
2023/07/06 01:39:42;;;;;;;14.02;8.18;;;13.10;99.90;;;;;;5073369;28;20285;-70
2023/07/06 01:42:29;;;;;;;15.70;8.43;;;13.00;99.90;;;;;;5073005;28;20031;-70
2023/07/06 01:45:08;;;;;;;14.07;8.68;;;13.00;99.90;;;;;;5072041;28;20013;-69
2023/07/06 01:47:38;;;;;;;14.38;7.53;;;13.00;99.90;;;;;;5072672;28;20484;-69
2023/07/06 01:50:06;;;;;;;15.48;8.68;;;13.00;99.90;;;;;;5072324;28;20096;-69
2023/07/06 01:52:59;;;;;;;14.35;7.55;;;13.00;99.90;;;;;;5072346;28;20435;-70
2023/07/06 01:55:27;;;;;;;;;;;12.90;99.90;;;;;;5071442;28;20111;-70
2023/07/06 01:58:23;;;;;;;11.90;6.72;;;12.90;99.90;;;;;;5072284;28;20594;-70
2023/07/06 02:00:57;;;;;;;10.70;6.82;;;12.90;99.90;;;;;;5071906;28;20028;-70
2023/07/06 02:03:25;;;;;;;15.68;7.57;;;12.90;99.90;;;;;;5072332;28;20429;-70
2023/07/06 02:05:51;;;;;;;19.00;6.88;;;12.90;99.90;;;;;;5071957;28;20050;-70
2023/07/06 02:08:18;;;;;;;13.52;7.28;;;12.90;99.90;;;;;;5072211;28;20119;-70
2023/07/06 02:10:44;;;;;;;12.57;7.63;;;13.00;99.90;;;;;;5072254;28;20050;-70
2023/07/06 02:13:10;;;;;;;12.32;5.80;;;13.00;99.90;;;;;;5071672;28;20525;-70
2023/07/06 02:15:36;;;;;;;14.98;6.82;;;13.00;99.90;;;;;;5072093;28;20083;-70
2023/07/06 02:18:02;;;;;;;11.02;5.70;;;13.00;99.90;;;;;;5071663;28;20052;-70
2023/07/06 02:20:29;;;;;;;11.55;5.90;;;13.00;99.90;;;;;;5071846;28;20025;-69
2023/07/06 02:22:54;;;;;;;13.35;6.40;;;13.10;99.90;;;;;;5071769;28;20060;-70
2023/07/06 02:25:20;;;;;;;14.02;5.97;;;13.10;99.90;;;;;;5071939;28;20086;-70
2023/07/06 02:27:46;;;;;;;12.98;6.53;;;13.10;99.90;;;;;;5070830;28;20016;-69
2023/07/06 02:30:12;;;;;;;11.95;5.15;;;13.10;99.90;;;;;;5070181;28;20051;-70
2023/07/06 02:32:39;;;;;;;11.43;5.57;;;13.10;99.90;;;;;;5071905;28;20047;-69
2023/07/06 02:35:06;;;;;;;12.02;5.65;;;13.10;99.90;;;;;;5071204;28;20395;-70
2023/07/06 02:37:31;;;;;;;16.25;4.93;;;13.10;99.90;;;;;;5071535;28;20021;-70
2023/07/06 02:39:58;;;;;;;13.30;5.10;;;13.10;99.90;;;;;;5070203;28;20032;-69
2023/07/06 02:42:25;;;;;;;10.23;5.03;;;13.10;99.90;;;;;;5071686;28;20394;-69
2023/07/06 02:44:51;;;;;;;13.27;5.32;;;13.10;99.90;;;;;;5069050;28;20060;-70
2023/07/06 02:47:16;;;;;;;15.82;5.13;;;13.10;99.90;;;;;;5071500;28;20024;-70
2023/07/06 02:49:42;;;;;;;12.18;4.90;;;13.10;99.90;;;;;;5070951;28;20031;-69
2023/07/06 02:52:08;;;;;;;10.98;4.88;;;13.20;99.90;;;;;;5071210;28;20459;-70
2023/07/06 02:54:33;;;;;;;9.70;5.03;;;13.20;99.90;;;;;;5071607;28;20050;-70
2023/07/06 02:57:02;;;;;;;9.38;4.40;;;13.10;99.90;;;;;;5071142;28;20500;-70
2023/07/06 02:59:31;;;;;;;20.15;6.03;;;13.20;99.90;;;;;;5070991;28;20029;-69
2023/07/06 03:02:00;;;;;;;11.70;4.20;;;13.10;99.90;;;;;;5070733;28;20033;-70
2023/07/06 03:04:27;;;;;;;11.65;4.10;;;13.10;99.90;;;;;;5071436;28;20548;-69
2023/07/06 03:06:55;;;;;;;9.20;4.22;;;13.10;99.90;;;;;;5070746;28;20071;-70
2023/07/06 03:09:22;;;;;;;8.88;3.90;;;13.10;99.90;;;;;;5071293;28;20419;-70
2023/07/06 03:11:49;;;;;;;10.85;4.05;;;13.10;99.90;;;;;;5071102;28;20040;-70
2023/07/06 03:14:15;;;;;;;11.85;4.05;;;13.10;99.90;;;;;;5069706;28;20023;-70
2023/07/06 03:16:40;;;;;;;8.25;3.95;;;13.10;99.90;;;;;;5071194;28;20106;-70
2023/07/06 03:19:10;;;;;;;9.52;3.80;;;13.00;99.90;;;;;;5070588;28;20059;-69
2023/07/06 03:21:39;;;;;;;7.60;3.90;;;13.00;99.90;;;;;;5069997;28;20494;-70
2023/07/06 03:24:07;;;;;;;14.15;4.35;;;13.00;99.90;;;;;;5068979;28;20123;-70
2023/07/06 03:26:36;;;;;;;10.43;4.07;;;13.00;99.90;;;;;;5070611;28;20495;-70
2023/07/06 03:29:05;;;;;;;11.55;4.43;;;12.90;99.90;;;;;;5070631;28;20410;-70
2023/07/06 03:31:32;;;;;;;13.93;4.05;;;13.00;99.90;;;;;;5070773;28;20044;-69
2023/07/06 03:34:01;;;;;;;18.40;5.28;;;12.90;99.90;;;;;;5068910;28;20020;-70
2023/07/06 03:36:27;;;;;;;10.48;3.83;;;13.00;99.90;;;;;;5069663;28;20028;-70
2023/07/06 03:38:53;;;;;;;9.13;4.07;;;12.90;99.90;;;;;;5070111;28;20466;-69
2023/07/06 03:41:19;;;;;;;7.28;3.45;;;12.90;99.90;;;;;;5070744;28;20036;-70
2023/07/06 03:43:45;;;;;;;10.05;4.40;;;12.90;99.90;;;;;;5057472;28;20075;-69
2023/07/06 03:46:12;;;;;;;10.98;3.88;;;13.00;99.90;;;;;;5050597;28;20032;-70
2023/07/06 03:48:40;;;;;;;7.65;3.15;;;13.00;99.90;;;;;;5064629;28;20017;-69
2023/07/06 03:51:07;;;;;;;13.57;3.92;;;13.00;99.90;;;;;;5070290;28;20037;-70
2023/07/06 03:53:35;;;;;;;8.05;3.13;;;13.00;99.90;;;;;;5070728;28;20028;-70
2023/07/06 03:56:01;;;;;;;12.02;4.13;;;13.00;99.90;;;;;;5070154;28;20474;-70
2023/07/06 03:58:28;;;;;;;9.50;3.55;;;13.00;99.90;;;;;;5070619;28;20109;-69
2023/07/06 04:00:56;;;;;;;9.13;3.03;;;13.10;99.90;;;;;;5072228;28;20039;-70
2023/07/06 04:03:21;;;;;;;11.95;3.78;;;13.10;99.90;;;;;;5073373;28;20374;-70
2023/07/06 04:05:48;;;;;;;8.57;4.00;;;13.10;99.90;;;;;;5074723;28;20043;-69
2023/07/06 04:08:20;;;;;;;15.45;4.22;;;13.10;99.90;;;;;;5072766;28;20107;-70
2023/07/06 04:10:46;;;;;;;12.50;3.13;;;13.10;99.90;;;;;;5074236;28;20111;-71
2023/07/06 04:13:14;;;;;;;10.43;2.80;;;13.20;99.90;;;;;;5073936;28;20060;-70
2023/07/06 04:15:44;;;;;;;10.20;3.35;;;13.20;99.90;;;;;;5074563;28;20016;-70
2023/07/06 04:18:10;;;;;;;10.45;3.85;;;13.20;99.90;;;;;;5074688;28;20080;-70
2023/07/06 04:20:36;;;;;;;10.65;3.78;;;13.20;99.90;;;;;;5074349;28;20454;-70
2023/07/06 04:23:02;;;;;;;10.40;4.05;;;13.30;99.90;;;;;;5073777;28;20021;-70
2023/07/06 04:25:31;;;;;;;9.45;3.53;;;13.30;99.90;;;;;;5074071;28;20044;-70
2023/07/06 04:28:06;;;;;;;7.45;3.25;;;13.30;99.90;;;;;;5073712;28;20021;-70
2023/07/06 04:30:37;;;;;;;9.20;3.65;;;13.30;99.90;;;;;;5073872;28;20555;-70
2023/07/06 04:33:04;;;;;;;8.60;4.07;;;13.30;99.90;;;;;;5073512;28;20024;-70
2023/07/06 04:35:31;;;;;;;9.68;4.00;;;13.40;99.90;;;;;;5074302;28;20085;-70
2023/07/06 04:37:58;;;;;;;11.77;3.65;;;13.30;99.90;;;;;;5073440;28;20066;-70
2023/07/06 04:40:26;;;;;;;19.08;4.20;;;13.40;99.90;;;;;;5073761;28;20037;-70
2023/07/06 04:42:52;;;;;;;13.75;4.07;;;13.40;99.90;;;;;;5056070;28;20040;-70
2023/07/06 04:45:19;;;;;;;12.40;4.32;;;13.40;99.90;;;;;;5064681;28;20039;-70
2023/07/06 04:47:46;;;;;;;11.80;4.57;;;13.50;99.90;;;;;;5073943;28;20049;-70
2023/07/06 04:50:17;;;;;;;8.10;3.85;;;13.50;99.90;;;;;;5072914;28;20043;-70
2023/07/06 04:52:43;;;;;;;7.97;4.15;;;13.50;99.90;;;;;;5073754;28;20347;-70
2023/07/06 04:55:09;;;;;;;15.00;4.38;;;13.50;99.90;;;;;;5073247;28;20509;-70
2023/07/06 04:57:35;;;;;;;9.95;4.20;;;13.50;99.90;;;;;;5073693;28;20033;-70
2023/07/06 05:00:11;;;;;;;12.32;4.50;;;13.50;99.90;;;;;;5073143;28;20185;-70
2023/07/06 05:02:37;;;;;;;12.90;4.53;;;13.60;99.90;;;;;;5073362;28;20032;-70
2023/07/06 05:05:02;;;;;;;10.85;4.15;;;13.60;99.90;;;;;;5072645;28;20017;-70
2023/07/06 05:07:30;;;;;;;16.00;4.72;;;13.70;99.90;;;;;;5073635;28;20024;-70
2023/07/06 05:09:56;;;;;;;9.82;4.35;;;13.70;99.90;;;;;;5073101;28;20031;-70
2023/07/06 05:12:21;;;;;;;10.90;4.25;;;13.80;99.90;;;;;;5073371;28;20029;-70
2023/07/06 05:14:47;;;;;;;17.15;5.72;;;13.90;99.90;;;;;;5073360;28;20051;-70
2023/07/06 05:17:13;;;;;;;16.73;6.03;;;14.00;99.90;;;;;;5073143;28;20031;-70
2023/07/06 05:19:38;;;;;;;16.42;5.53;;;14.00;99.90;;;;;;5072959;28;20016;-70
2023/07/06 05:22:04;;;;;;;14.55;5.85;;;14.10;99.90;;;;;;5072794;28;20025;-70
2023/07/06 05:24:30;;;;;;;17.02;5.65;;;14.10;99.90;;;;;;5073237;28;20020;-70
2023/07/06 05:26:55;;;;;;;13.27;5.00;;;14.20;99.90;;;;;;5072546;28;20057;-70
2023/07/06 05:29:21;;;;;;;13.23;4.60;;;14.20;99.90;;;;;;5073312;28;20439;-70
2023/07/06 05:31:48;;;;;;;13.52;5.25;;;14.30;99.90;;;;;;5071545;28;20066;-71
2023/07/06 05:34:14;;;;;;;13.57;5.88;;;14.50;99.90;;;;;;5072637;28;20482;-71
2023/07/06 05:36:39;;;;;;;14.45;5.10;;;14.70;99.90;;;;;;5072776;28;20025;-70
2023/07/06 05:39:06;;;;;;;16.40;5.20;;;15.10;99.90;;;;;;5072517;28;20023;-70
2023/07/06 05:41:32;;;;;;;13.70;6.13;;;15.40;99.90;;;;;;5071394;28;20031;-71
2023/07/06 05:43:58;;;;;;;13.40;6.05;;;15.50;99.90;;;;;;5072337;28;20028;-70
2023/07/06 05:46:24;;;;;;;17.23;5.32;;;15.50;99.90;;;;;;5072650;28;20020;-72
2023/07/06 05:48:51;;;;;;;13.88;6.72;;;15.50;99.90;;;;;;5072107;28;20101;-71
2023/07/06 05:51:17;;;;;;;23.90;7.75;;;15.50;99.90;;;;;;5072485;28;20032;-70
2023/07/06 05:53:43;;;;;;;18.00;7.28;;;15.50;99.90;;;;;;5072329;28;20477;-71
2023/07/06 05:56:09;;;;;;;17.88;7.97;;;15.60;99.90;;;;;;5071971;28;20113;-71
2023/07/06 05:58:34;;;;;;;20.90;8.32;;;15.60;99.90;;;;;;5072710;28;20136;-71
2023/07/06 06:01:02;;;;;;;15.95;8.52;;;15.70;99.90;;;;;;5072052;28;20103;-71
2023/07/06 06:03:29;;;;;;;21.55;8.82;;;15.70;99.90;;;;;;5071994;28;20016;-70
2023/07/06 06:05:54;;;;;;;15.95;8.63;;;15.70;99.90;;;;;;5072275;28;20107;-71
2023/07/06 06:08:20;;;;;;;20.50;9.02;;;15.70;99.90;;;;;;5072108;28;20462;-71
2023/07/06 06:10:49;;;;;;;18.00;9.68;;;15.70;99.90;;;;;;5070685;28;20044;-71
2023/07/06 06:13:15;;;;;;;18.25;8.75;;;15.80;99.90;;;;;;5072308;28;20126;-71
2023/07/06 06:15:40;;;;;;;18.65;9.80;;;16.00;99.90;;;;;;5070700;28;20502;-71
2023/07/06 06:18:06;;;;;;;18.27;9.63;;;16.10;99.90;;;;;;5071188;28;20020;-71
2023/07/06 06:20:32;;;;;;;23.48;10.98;;;16.20;99.90;;;;;;5071963;28;20029;-71
2023/07/06 06:23:01;;;;;;;28.80;10.55;;;16.30;99.90;;;;;;5070319;28;20021;-71
2023/07/06 06:25:26;;;;;;;17.58;9.88;;;16.50;99.90;;;;;;5071728;28;20055;-70
2023/07/06 06:27:52;;;;;;;17.67;9.88;;;16.60;99.90;;;;;;5071314;28;20107;-71
2023/07/06 06:30:19;;;;;;;19.30;10.77;;;16.70;99.90;;;;;;5071696;28;20045;-71
2023/07/06 06:32:44;;;;;;;29.67;11.85;;;16.80;99.90;;;;;;5071745;28;20024;-70
2023/07/06 06:35:25;;;;;;;18.85;10.52;;;16.80;99.90;;;;;;5071252;28;20501;-70
2023/07/06 06:37:51;;;;;;;25.60;11.70;;;16.80;99.90;;;;;;5071201;28;20021;-71
2023/07/06 06:40:19;;;;;;;22.40;10.90;;;16.80;99.90;;;;;;5070264;28;20024;-71
2023/07/06 06:42:44;;;;;;;24.58;11.52;;;16.90;99.90;;;;;;5071622;28;20417;-71
2023/07/06 06:45:10;;;;;;;25.75;11.82;;;16.80;99.90;;;;;;5071167;28;20026;-71
2023/07/06 06:47:36;;;;;;;24.58;13.25;;;16.90;99.90;;;;;;5072073;28;20104;-71
2023/07/06 06:50:01;;;;;;;22.42;12.15;;;17.00;99.90;;;;;;5070988;28;20044;-70
2023/07/06 06:52:27;;;;;;;20.98;11.70;;;17.00;99.90;;;;;;5071399;28;20025;-70
2023/07/06 06:54:53;;;;;;;20.10;11.43;;;17.00;99.90;;;;;;5070831;28;20469;-71
2023/07/06 06:57:22;;;;;;;26.25;12.38;;;17.20;99.90;;;;;;5071175;28;20096;-71
2023/07/06 06:59:47;;;;;;;23.33;12.73;;;17.20;99.90;;;;;;5071080;28;20025;-71
2023/07/06 07:02:14;;;;;;;22.75;12.82;;;17.30;99.90;;;;;;5071061;28;20020;-71
2023/07/06 07:04:39;;;;;;;21.98;12.75;;;17.40;99.90;;;;;;5069927;28;20052;-70
2023/07/06 07:07:06;;;;;;;32.38;14.82;;;17.40;99.90;;;;;;5070677;28;20125;-71
2023/07/06 07:09:32;;;;;;;20.45;12.27;;;17.50;99.90;;;;;;5069801;28;20093;-71
2023/07/06 07:11:58;;;;;;;19.90;13.10;;;17.50;99.90;;;;;;5070696;28;20154;-71
2023/07/06 07:14:23;;;;;;;26.10;13.60;;;17.60;99.90;;;;;;5070320;28;20044;-70
2023/07/06 07:16:50;;;;;;;27.25;13.05;;;17.70;99.90;;;;;;5070589;28;20495;-71
2023/07/06 07:19:16;;;;;;;21.67;12.48;;;17.80;99.90;;;;;;5071061;28;20413;-71
2023/07/06 07:21:41;;;;;;;23.95;13.07;;;17.90;99.90;;;;;;5070935;28;20044;-70
2023/07/06 07:24:08;;;;;;;21.23;12.50;;;18.00;99.90;;;;;;5070675;28;20024;-71
2023/07/06 07:26:34;;;;;;;20.90;12.43;;;18.10;99.90;;;;;;5069402;28;20044;-71
2023/07/06 07:28:59;;;;;;;24.90;13.85;;;18.30;99.90;;;;;;5070350;28;20019;-70
2023/07/06 07:31:26;;;;;;;24.40;12.02;;;18.30;99.90;;;;;;5070567;28;20036;-71
2023/07/06 07:33:52;;;;;;;21.65;12.57;;;18.40;99.90;;;;;;5070044;28;20427;-71
2023/07/06 07:36:19;;;;;;;20.90;12.35;;;18.50;99.90;;;;;;5070630;28;20040;-71
2023/07/06 07:38:46;;;;;;;19.40;12.18;;;18.60;99.90;;;;;;5054062;28;20021;-71
2023/07/06 07:41:13;;;;;;;23.08;12.82;;;18.70;99.90;;;;;;5059497;28;20116;-71
2023/07/06 07:43:42;;;;;;;24.70;12.13;;;18.60;99.90;;;;;;5070535;28;20100;-71
2023/07/06 07:46:13;;;;;;;24.13;12.93;;;18.50;99.90;;;;;;5070192;28;20057;-71
2023/07/06 07:48:45;;;;;;;19.98;12.13;;;18.50;99.90;;;;;;5069778;28;20048;-71
2023/07/06 07:51:12;;;;;;;20.90;11.77;;;18.50;99.90;;;;;;5070043;28;20090;-71
2023/07/06 07:53:39;;;;;;;19.63;11.30;;;18.50;99.90;;;;;;5070824;28;20037;-71
2023/07/06 07:56:06;;;;;;;23.55;12.27;;;18.70;99.90;;;;;;5069831;28;20410;-70
2023/07/06 07:58:36;;;;;;;21.80;13.55;;;18.80;99.90;;;;;;5070534;28;20458;-70
2023/07/06 08:01:05;;;;;;;22.38;11.85;;;18.80;99.90;;;;;;5070272;28;20051;-71
2023/07/06 08:03:32;;;;;;;16.23;10.60;;;18.80;99.90;;;;;;5070335;28;20017;-70
2023/07/06 08:06:02;;;;;;;23.02;11.77;;;18.80;99.90;;;;;;5070081;28;20029;-70
2023/07/06 08:08:29;;;;;;;24.52;11.88;;;18.80;99.90;;;;;;5070448;28;20012;-70
2023/07/06 08:10:55;;;;;;;20.65;11.60;;;18.60;99.90;;;;;;5068747;28;20045;-70
2023/07/06 08:13:21;;;;;;;18.90;12.00;;;18.60;99.90;;;;;;5070340;28;20032;-70
2023/07/06 08:15:47;;;;;;;17.55;11.48;;;18.70;99.90;;;;;;5070410;28;20367;-70
2023/07/06 08:18:14;;;;;;;22.02;11.52;;;18.70;99.90;;;;;;5069872;28;20024;-70
2023/07/06 08:20:40;;;;;;;18.70;11.20;;;18.80;99.90;;;;;;5068787;28;20505;-70
2023/07/06 08:23:10;;;;;;;23.13;11.02;;;18.80;99.90;;;;;;5070000;28;20024;-70
2023/07/06 08:25:44;;;;;;;19.73;10.68;;;18.70;99.90;;;;;;5070161;28;20052;-70
2023/07/06 08:28:14;;;;;;;19.17;10.30;;;18.80;99.90;;;;;;5070188;28;20051;-70
2023/07/06 08:30:42;;;;;;;18.65;10.85;;;19.00;99.90;;;;;;5070291;28;20528;-70
2023/07/06 08:33:11;;;;;;;17.95;10.13;;;19.10;99.90;;;;;;5069862;28;20058;-70
2023/07/06 08:35:41;;;;;;;13.73;9.48;;;19.20;99.90;;;;;;5067533;28;20129;-70
2023/07/06 08:38:07;;;;;;;15.40;8.70;;;19.40;99.90;;;;;;5056744;28;20024;-71
2023/07/06 08:40:34;;;;;;;22.27;10.10;;;19.50;99.90;;;;;;5070331;28;20466;-70
2023/07/06 08:43:00;;;;;;;17.13;9.05;;;19.50;99.90;;;;;;5051768;28;20111;-70
2023/07/06 08:45:40;;;;;;;15.38;9.43;;;19.60;99.90;;;;;;5070468;28;20043;-71
2023/07/06 08:48:12;;;;;;;16.10;9.00;;;19.70;99.90;;;;;;5072966;28;20464;-71
2023/07/06 08:50:38;;;;;;;;;;;19.70;99.90;;;;;;5074163;28;20059;-70
2023/07/06 08:53:05;;;;;;;14.50;8.60;;;19.70;99.90;;;;;;5073328;28;20371;-70
2023/07/06 08:55:31;;;;;;;16.02;9.55;;;19.70;99.90;;;;;;5073642;28;20060;-70
2023/07/06 08:57:57;;;;;;;16.75;10.20;;;19.80;99.90;;;;;;5073081;28;20025;-70
2023/07/06 09:00:25;;;;;;;15.68;9.32;;;19.90;99.90;;;;;;5073109;28;20058;-70
2023/07/06 09:03:06;;;;;;;14.02;10.18;;;20.00;99.90;;;;;;5073372;28;20428;-71
2023/07/06 09:05:35;;;;;;;18.55;10.43;;;20.20;99.90;;;;;;5073591;28;20044;-70
2023/07/06 09:08:00;;;;;;;18.77;9.45;;;20.30;99.90;;;;;;5072790;28;20031;-70
2023/07/06 09:10:28;;;;;;;14.80;9.32;;;20.50;99.90;;;;;;5073308;28;20029;-70
2023/07/06 09:13:28;;;;;;;15.05;9.20;;;20.60;99.90;;;;;;5073231;28;20024;-70
2023/07/06 09:16:01;;;;;;;15.48;9.05;;;20.70;99.90;;;;;;5072742;28;20020;-71
2023/07/06 09:18:29;;;;;;;14.25;8.93;;;20.80;99.90;;;;;;5071943;28;20020;-71
2023/07/06 09:20:57;;;;;;;12.70;7.80;;;20.90;99.90;;;;;;5072598;28;20023;-71
2023/07/06 09:23:24;;;;;;;14.93;8.70;;;20.90;99.90;;;;;;5073084;28;20371;-71
2023/07/06 09:25:50;;;;;;;18.20;9.48;;;20.80;99.90;;;;;;5072631;28;20040;-71
2023/07/06 09:28:34;;;;;;;16.15;9.68;;;20.90;99.90;;;;;;5072867;28;20551;-70
2023/07/06 09:31:08;;;;;;;17.73;9.23;;;20.90;99.90;;;;;;5072406;28;20513;-71
2023/07/06 09:33:34;;;;;;;15.02;8.57;;;21.00;99.90;;;;;;5072904;28;20024;-70
2023/07/06 09:36:00;;;;;;;13.68;8.75;;;20.90;99.90;;;;;;5070891;28;20367;-70
2023/07/06 09:38:27;;;;;;;11.70;8.13;;;20.90;99.90;;;;;;5071467;28;20553;-70
2023/07/06 09:40:53;;;;;;;15.07;9.18;;;21.20;99.90;;;;;;5072577;28;20025;-71
2023/07/06 09:43:29;;;;;;;13.70;8.30;;;21.40;99.90;;;;;;5072795;28;20557;-70
2023/07/06 09:45:57;;;;;;;12.43;7.53;;;21.50;99.90;;;;;;5072361;28;20063;-70
2023/07/06 09:48:38;;;;;;;12.93;7.32;;;21.50;99.90;;;;;;5072495;28;20022;-70
2023/07/06 09:51:27;;;;;;;15.25;8.13;;;21.50;99.90;;;;;;5072212;28;20501;-71
2023/07/06 09:54:03;;;;;;;15.23;8.45;;;21.50;99.90;;;;;;5072050;28;20032;-71
2023/07/06 09:56:29;;;;;;;18.70;8.73;;;21.60;99.90;;;;;;5072196;28;20050;-71
2023/07/06 09:58:56;;;;;;;12.60;8.48;;;21.50;99.90;;;;;;5070912;28;20025;-70
2023/07/06 10:01:38;;;;;;;16.67;8.23;;;21.40;99.90;;;;;;5072287;28;20518;-71
2023/07/06 10:04:21;;;;;;;12.30;7.25;;;21.30;99.90;;;;;;5071685;28;20025;-71
2023/07/06 10:06:53;;;;;;;12.25;7.40;;;21.20;99.90;;;;;;5072403;28;20027;-71
2023/07/06 10:09:32;;;;;;;11.75;7.68;;;21.20;99.90;;;;;;5072563;28;20031;-70
2023/07/06 10:12:16;;;;;;;14.65;6.93;;;21.20;99.90;;;;;;5071829;28;20134;-71
2023/07/06 10:14:50;;;;;;;12.00;6.30;;;21.10;99.90;;;;;;5072079;28;20074;-71
2023/07/06 10:17:28;;;;;;;8.80;5.43;;;21.30;99.90;;;;;;5072196;28;20024;-71
2023/07/06 10:20:08;;;;;;;8.90;4.43;;;21.50;99.90;;;;;;5071409;28;20020;-71
2023/07/06 10:22:59;;;;;;;8.63;4.88;;;21.70;99.90;;;;;;5071916;28;20032;-71
2023/07/06 10:25:43;;;;;;;7.97;4.65;;;21.90;99.90;;;;;;5071715;28;20475;-71
2023/07/06 10:28:18;;;;;;;10.20;5.72;;;22.00;99.90;;;;;;5071346;28;20021;-70
2023/07/06 10:30:47;;;;;;;13.00;6.25;;;22.20;99.90;;;;;;5070452;28;20040;-71
2023/07/06 10:33:27;;;;;;;8.60;5.15;;;22.20;99.90;;;;;;5070245;28;20055;-71
2023/07/06 10:35:53;;;;;;;10.30;5.40;;;22.30;99.90;;;;;;5069977;28;20069;-71
2023/07/06 10:38:19;;;;;;;9.82;5.43;;;22.30;99.90;;;;;;5071487;28;20029;-71
2023/07/06 10:41:25;;;;;;;12.48;4.68;;;22.30;99.90;;;;;;5070441;28;20059;-71
2023/07/06 10:43:51;;;;;;;7.60;3.50;;;22.30;99.90;;;;;;5049545;28;20083;-71
2023/07/06 10:46:33;;;;;;;6.00;3.60;;;22.40;99.90;;;;;;5070460;28;20028;-71
2023/07/06 10:49:17;;;;;;;8.48;4.50;;;22.50;99.90;;;;;;5071281;28;20031;-71
2023/07/06 10:51:55;;;;;;;9.48;4.57;;;22.70;99.90;;;;;;5071502;28;20470;-71
2023/07/06 10:54:21;;;;;;;11.55;5.70;;;22.80;99.90;;;;;;5054827;28;20017;-71
2023/07/06 10:57:10;;;;;;;7.80;4.68;;;23.00;99.90;;;;;;5070114;28;20024;-71
2023/07/06 10:59:48;;;;;;;10.65;5.10;;;23.10;99.90;;;;;;5071260;28;20017;-71
2023/07/06 11:02:40;;;;;;;7.90;4.30;;;23.20;99.60;;;;;;5071427;28;20017;-71
2023/07/06 11:05:25;;;;;;;5.68;3.28;;;23.20;99.30;;;;;;5070058;28;20024;-71
2023/07/06 11:07:53;;;;;;;8.43;3.55;;;23.20;99.40;;;;;;5069514;28;20070;-71
2023/07/06 11:10:44;;;;;;;8.55;3.72;;;23.30;98.70;;;;;;5070693;28;20032;-71
2023/07/06 11:13:15;;;;;;;6.20;3.40;;;23.50;98.50;;;;;;5069383;28;20020;-71
2023/07/06 11:15:51;;;;;;;6.20;3.15;;;23.50;97.70;;;;;;5069989;28;20020;-71
2023/07/06 11:18:23;;;;;;;4.38;1.80;;;23.50;97.30;;;;;;5071067;28;20554;-71
2023/07/06 11:20:57;;;;;;;8.90;2.63;;;23.60;96.00;;;;;;5070497;28;20089;-71
2023/07/06 11:23:41;;;;;;;5.97;2.85;;;23.50;95.20;;;;;;5070363;28;20059;-70
2023/07/06 11:26:17;;;;;;;5.40;2.60;;;23.50;94.90;;;;;;5069036;28;20044;-71
2023/07/06 11:28:43;;;;;;;7.05;2.88;;;23.60;95.30;;;;;;5070519;28;20028;-71
2023/07/06 11:31:38;;;;;;;4.50;2.50;;;23.80;95.10;;;;;;5070117;28;20414;-70
2023/07/06 11:34:18;;;;;;;5.75;2.95;;;23.90;93.40;;;;;;5067904;28;20025;-71
2023/07/06 11:37:08;;;;;;;6.18;2.08;;;23.70;92.60;;;;;;5070544;28;20052;-71
2023/07/06 11:39:44;;;;;;;4.93;1.80;;;23.60;93.50;;;;;;5038758;28;20429;-71
2023/07/06 11:42:33;;;;;;;5.40;2.03;;;23.60;93.90;;;;;;5059665;28;20021;-70
2023/07/06 11:45:06;;;;;;;6.55;2.17;;;23.60;93.30;;;;;;5063351;28;20037;-71
2023/07/06 11:47:40;;;;;;;7.68;2.05;;;23.60;93.30;;;;;;5069632;28;20029;-71
2023/07/06 11:50:12;;;;;;;5.68;2.00;;;23.70;92.90;;;;;;5069093;28;20141;-71
2023/07/06 11:52:42;;;;;;;7.38;2.47;;;23.80;92.30;;;;;;5070541;28;20090;-71
2023/07/06 11:55:29;;;;;;;9.63;1.75;;;23.80;91.50;;;;;;5070303;28;20048;-71
2023/07/06 11:58:28;;;;;;;6.47;2.05;;;23.70;92.20;;;;;;5070674;28;20056;-71
2023/07/06 12:00:58;;;;;;;6.03;1.92;;;23.60;92.20;;;;;;5070162;28;20059;-71
2023/07/06 12:03:26;;;;;;;4.20;1.63;;;23.50;91.10;;;;;;5070109;28;20027;-70
2023/07/06 12:05:58;;;;;;;4.10;1.48;;;23.60;91.50;;;;;;5070321;28;20505;-71
2023/07/06 12:08:36;;;;;;;4.88;1.67;;;23.80;90.30;;;;;;5070519;28;20470;-70
2023/07/06 12:11:14;;;;;;;6.00;1.95;;;24.00;90.20;;;;;;5070088;28;20137;-71
2023/07/06 12:13:45;;;;;;;4.57;1.17;;;24.20;90.20;;;;;;5070204;28;20386;-71
2023/07/06 12:16:21;;;;;;;5.85;1.27;;;24.30;90.10;;;;;;5070260;28;20024;-71
2023/07/06 12:18:55;;;;;;;4.03;0.80;;;24.50;89.10;;;;;;5070252;28;20078;-71
2023/07/06 12:21:21;;;;;;;3.20;0.98;;;24.70;88.20;;;;;;5069006;28;20328;-71
2023/07/06 12:23:46;;;;;;;3.65;1.10;;;24.80;84.10;;;;;;5074346;28;20066;-71
2023/07/06 12:26:13;;;;;;;3.05;0.80;;;24.70;82.90;;;;;;5073516;28;20052;-71
2023/07/06 12:28:44;;;;;;;3.78;1.05;;;24.70;83.60;;;;;;5072935;28;20071;-71
2023/07/06 12:31:10;;;;;;;3.72;0.80;;;24.80;83.20;;;;;;5071610;28;20051;-71
2023/07/06 12:33:36;;;;;;;3.55;0.77;;;24.80;83.40;;;;;;5074348;28;20029;-70
2023/07/06 12:36:03;;;;;;;4.00;0.77;;;24.70;82.40;;;;;;5073208;28;20429;-70
2023/07/06 12:38:30;;;;;;;5.43;0.93;;;24.60;83.60;;;;;;5073971;28;20423;-70
2023/07/06 12:41:15;;;;;;;5.97;1.15;;;24.50;84.20;;;;;;5073307;28;20035;-70
2023/07/06 12:43:43;;;;;;;5.80;0.80;;;24.50;84.00;;;;;;5073972;28;20052;-70
2023/07/06 12:46:09;;;;;;;5.28;0.70;;;24.30;84.30;;;;;;5073580;28;20047;-69
2023/07/06 12:48:42;;;;;;;3.45;0.90;;;24.30;85.50;;;;;;5073889;28;20030;-70
2023/07/06 12:51:14;;;;;;;3.55;0.60;;;24.30;81.50;;;;;;5072598;28;20292;-71
2023/07/06 12:53:40;;;;;;;1.63;0.50;;;24.40;81.00;;;;;;5072290;28;20070;-71
2023/07/06 12:56:10;;;;;;;2.13;0.60;;;24.50;79.00;;;;;;5072633;28;20072;-71